createdAt,value
2024-02-29T00:01:08.453Z,13.77
2024-02-29T00:03:34.844Z,10.32
2024-02-29T00:06:01.136Z,13.25
2024-02-29T00:08:28.425Z,13.70
2024-02-29T00:10:54.916Z,12.27
2024-02-29T00:13:22.382Z,13.38
2024-02-29T00:15:48.707Z,13.98
2024-02-29T00:18:16.020Z,12.35
2024-02-29T00:20:42.680Z,13.15
2024-02-29T00:23:10.084Z,12.95
2024-02-29T00:25:36.777Z,13.93
2024-02-29T00:28:04.522Z,12.45
2024-02-29T00:30:30.944Z,12.18
2024-02-29T00:32:58.399Z,11.10
2024-02-29T00:35:24.998Z,12.00
2024-02-29T00:37:52.361Z,11.77
2024-02-29T00:40:18.752Z,12.35
2024-02-29T00:42:46.431Z,11.43
2024-02-29T00:45:12.870Z,14.07
2024-02-29T00:47:39.334Z,12.30
2024-02-29T00:50:06.023Z,13.55
2024-02-29T00:52:32.497Z,12.27
2024-02-29T00:54:59.050Z,13.82
2024-02-29T00:57:26.522Z,13.93
2024-02-29T00:59:52.868Z,11.27
2024-02-29T01:02:19.319Z,14.02
2024-02-29T01:04:45.716Z,13.55
2024-02-29T01:07:13.216Z,14.63
2024-02-29T01:09:39.613Z,13.15
2024-02-29T01:12:06.574Z,13.60
2024-02-29T01:14:32.890Z,13.77
2024-02-29T01:16:59.500Z,11.02
2024-02-29T01:19:25.914Z,13.35
2024-02-29T01:21:52.363Z,11.30
2024-02-29T01:24:19.804Z,13.20
2024-02-29T01:26:47.195Z,13.07
2024-02-29T01:29:13.535Z,13.60
2024-02-29T01:31:40.885Z,11.77
2024-02-29T01:34:07.259Z,12.32
2024-02-29T01:36:33.644Z,12.32
2024-02-29T01:39:00.080Z,13.20
2024-02-29T01:41:26.542Z,11.55
2024-02-29T01:43:53.947Z,12.55
2024-02-29T01:46:20.778Z,13.00
2024-02-29T01:48:47.643Z,11.93
2024-02-29T01:51:14.015Z,11.55
2024-02-29T01:53:40.752Z,11.50
2024-02-29T01:56:07.675Z,12.05
2024-02-29T01:58:35.218Z,9.93
2024-02-29T02:01:01.949Z,11.52
2024-02-29T02:03:28.674Z,11.93
2024-02-29T02:05:54.975Z,12.23
2024-02-29T02:08:21.851Z,10.32
2024-02-29T02:10:48.223Z,9.23
2024-02-29T02:13:15.763Z,12.18
2024-02-29T02:15:42.192Z,11.77
2024-02-29T02:18:08.772Z,10.90
2024-02-29T02:20:35.080Z,11.75
2024-02-29T02:23:01.410Z,10.90
2024-02-29T02:25:27.962Z,11.20
2024-02-29T02:27:54.384Z,11.93
2024-02-29T02:30:20.711Z,12.48
2024-02-29T02:32:49.175Z,11.63
2024-02-29T02:35:15.699Z,10.63
2024-02-29T02:37:42.060Z,10.98
2024-02-29T02:40:09.302Z,11.48
2024-02-29T02:42:36.878Z,11.32
2024-02-29T02:45:03.559Z,10.05
2024-02-29T02:47:31.067Z,11.20
2024-02-29T02:49:57.406Z,10.55
2024-02-29T02:52:23.853Z,9.52
2024-02-29T02:54:50.656Z,8.02
2024-02-29T02:57:18.071Z,11.35
2024-02-29T02:59:44.442Z,12.05
2024-02-29T03:02:11.939Z,10.43
2024-02-29T03:04:38.261Z,11.07
2024-02-29T03:07:06.798Z,11.25
2024-02-29T03:09:34.144Z,11.35
2024-02-29T03:12:01.601Z,12.00
2024-02-29T03:14:28.172Z,12.38
2024-02-29T03:16:54.857Z,12.07
2024-02-29T03:19:21.126Z,10.82
2024-02-29T03:21:48.582Z,10.82
2024-02-29T03:24:15.018Z,12.63
2024-02-29T03:26:41.294Z,10.52
2024-02-29T03:29:08.338Z,11.98
2024-02-29T03:31:35.017Z,12.73
2024-02-29T03:34:03.598Z,13.23
2024-02-29T03:36:29.938Z,12.02
2024-02-29T03:38:56.289Z,12.38
2024-02-29T03:41:22.596Z,13.70
2024-02-29T03:43:49.916Z,12.27
2024-02-29T03:46:16.217Z,12.15
2024-02-29T03:48:43.621Z,14.40
2024-02-29T03:51:09.977Z,14.45
2024-02-29T03:53:36.361Z,14.35
2024-02-29T03:56:02.686Z,13.90
2024-02-29T03:58:30.243Z,12.18
2024-02-29T04:00:56.607Z,13.15
2024-02-29T04:03:23.092Z,13.43
2024-02-29T04:05:49.418Z,12.02
2024-02-29T04:08:15.899Z,12.80
2024-02-29T04:10:45.779Z,14.15
2024-02-29T04:13:12.279Z,13.98
2024-02-29T04:15:38.656Z,14.05
2024-02-29T04:18:07.228Z,14.50
2024-02-29T04:20:34.639Z,15.50
2024-02-29T04:23:01.004Z,15.43
2024-02-29T04:25:27.986Z,14.27
2024-02-29T04:27:54.363Z,14.40
2024-02-29T04:30:20.694Z,14.07
2024-02-29T04:32:47.102Z,15.88
2024-02-29T04:35:13.558Z,14.13
2024-02-29T04:37:40.059Z,16.00
2024-02-29T04:40:11.051Z,15.65
2024-02-29T04:42:38.436Z,15.07
2024-02-29T04:45:05.022Z,16.63
2024-02-29T04:47:38.502Z,15.82
2024-02-29T04:50:05.861Z,16.30
2024-02-29T04:52:32.613Z,16.27
2024-02-29T04:54:59.015Z,14.40
2024-02-29T04:57:27.057Z,16.55
2024-02-29T04:59:53.328Z,14.60
2024-02-29T05:02:22.005Z,15.60
2024-02-29T05:04:49.370Z,15.93
2024-02-29T05:07:17.166Z,14.73
2024-02-29T05:09:43.523Z,16.15
2024-02-29T05:12:11.910Z,15.73
2024-02-29T05:14:38.206Z,16.77
2024-02-29T05:17:04.798Z,17.20
2024-02-29T05:19:31.161Z,17.02
2024-02-29T05:21:57.706Z,18.52
2024-02-29T05:24:24.094Z,16.58
2024-02-29T05:26:50.514Z,17.40
2024-02-29T05:29:16.903Z,15.73
2024-02-29T05:31:53.347Z,17.05
2024-02-29T05:34:21.498Z,13.32
2024-02-29T05:36:48.643Z,16.77
2024-02-29T05:39:15.505Z,17.40
2024-02-29T05:41:41.920Z,17.42
2024-02-29T05:44:09.627Z,13.27
2024-02-29T05:46:36.201Z,12.80
2024-02-29T05:49:03.141Z,17.52
2024-02-29T05:51:29.466Z,13.98
2024-02-29T05:53:56.050Z,15.43
2024-02-29T05:56:23.462Z,18.30
2024-02-29T05:58:49.770Z,14.13
2024-02-29T06:01:17.609Z,15.70
2024-02-29T06:03:44.075Z,15.13
2024-02-29T06:06:11.440Z,15.88
2024-02-29T06:08:39.047Z,17.35
2024-02-29T06:11:05.450Z,16.67
2024-02-29T06:13:33.000Z,16.70
2024-02-29T06:16:01.002Z,18.00
2024-02-29T06:18:27.769Z,18.02
2024-02-29T06:20:54.154Z,17.13
2024-02-29T06:23:20.607Z,15.50
2024-02-29T06:25:49.187Z,17.70
2024-02-29T06:28:15.902Z,16.55
2024-02-29T06:30:42.421Z,16.48
2024-02-29T06:33:08.820Z,16.25
2024-02-29T06:35:36.210Z,16.30
2024-02-29T06:38:02.569Z,16.20
2024-02-29T06:40:29.068Z,17.52
2024-02-29T06:42:55.446Z,16.40
2024-02-29T06:45:21.972Z,17.08
2024-02-29T06:47:49.337Z,16.63
2024-02-29T06:50:15.624Z,15.30
2024-02-29T06:52:44.681Z,16.50
2024-02-29T06:55:11.322Z,14.85
2024-02-29T06:57:38.174Z,13.73
2024-02-29T07:00:06.682Z,13.98
2024-02-29T07:02:33.952Z,15.00
2024-02-29T07:05:00.357Z,14.85
2024-02-29T07:07:28.051Z,15.77
2024-02-29T07:09:55.203Z,15.85
2024-02-29T07:12:21.672Z,13.80
2024-02-29T07:14:48.300Z,16.15
2024-02-29T07:17:15.996Z,15.55
2024-02-29T07:19:42.342Z,13.50
2024-02-29T07:22:08.954Z,15.07
2024-02-29T07:24:35.384Z,14.57
2024-02-29T07:27:02.704Z,14.75
2024-02-29T07:29:29.098Z,14.48
2024-02-29T07:31:56.507Z,14.35
2024-02-29T07:34:22.813Z,15.68
2024-02-29T07:36:50.309Z,14.07
2024-02-29T07:39:17.526Z,13.77
2024-02-29T07:41:44.922Z,14.00
2024-02-29T07:44:11.426Z,13.95
2024-02-29T07:46:37.859Z,14.35
2024-02-29T07:49:04.197Z,14.15
2024-02-29T07:51:31.628Z,13.70
2024-02-29T07:53:57.929Z,13.15
2024-02-29T07:56:27.322Z,14.27
2024-02-29T07:58:55.071Z,12.20
2024-02-29T08:01:21.556Z,13.70
2024-02-29T08:03:48.176Z,13.60
2024-02-29T08:06:14.963Z,9.82
2024-02-29T08:08:41.296Z,12.95
2024-02-29T08:11:08.157Z,12.50
2024-02-29T08:13:34.513Z,11.95
2024-02-29T08:16:01.061Z,10.75
2024-02-29T08:18:27.426Z,13.45
2024-02-29T08:20:54.804Z,12.80
2024-02-29T08:23:21.138Z,13.00
2024-02-29T08:25:47.539Z,13.57
2024-02-29T08:28:14.323Z,13.65
2024-02-29T08:30:40.771Z,11.65
2024-02-29T08:33:07.445Z,12.93
2024-02-29T08:35:33.879Z,12.95
2024-02-29T08:38:00.278Z,13.10
2024-02-29T08:40:26.849Z,10.80
2024-02-29T08:42:57.443Z,12.68
2024-02-29T08:45:24.019Z,10.95
2024-02-29T08:47:51.203Z,14.23
2024-02-29T08:50:18.683Z,14.63
2024-02-29T08:52:45.038Z,12.90
2024-02-29T08:55:11.501Z,12.45
2024-02-29T08:57:38.243Z,13.80
2024-02-29T09:00:04.910Z,13.73
2024-02-29T09:02:31.292Z,14.85
2024-02-29T09:04:57.572Z,15.15
2024-02-29T09:07:23.996Z,13.98
2024-02-29T09:09:51.503Z,14.18
2024-02-29T09:12:18.813Z,13.80
2024-02-29T09:14:45.948Z,13.90
2024-02-29T09:17:12.395Z,15.23
2024-02-29T09:19:38.775Z,15.60
2024-02-29T09:22:11.122Z,14.77
2024-02-29T09:24:38.008Z,15.50
2024-02-29T09:27:06.626Z,15.40
2024-02-29T09:29:34.748Z,14.77
2024-02-29T09:32:24.624Z,12.30
2024-02-29T09:34:52.330Z,16.08
2024-02-29T09:37:19.092Z,11.98
2024-02-29T09:39:45.447Z,13.90
2024-02-29T09:42:14.316Z,14.88
2024-02-29T09:44:43.507Z,16.20
2024-02-29T09:47:11.117Z,15.68
2024-02-29T09:49:37.445Z,16.25
2024-02-29T09:52:05.004Z,16.58
2024-02-29T09:54:34.184Z,16.05
2024-02-29T09:57:01.213Z,16.63
2024-02-29T09:59:28.304Z,16.60
2024-02-29T10:01:58.688Z,17.48
2024-02-29T10:04:27.819Z,15.98
2024-02-29T10:06:56.482Z,14.93
2024-02-29T10:09:22.899Z,17.20
2024-02-29T10:11:50.388Z,13.38
2024-02-29T10:14:19.625Z,17.65
2024-02-29T10:16:56.403Z,14.60
2024-02-29T10:19:23.463Z,15.35
2024-02-29T10:21:50.685Z,14.45
2024-02-29T10:24:20.330Z,15.65
2024-02-29T10:26:47.245Z,15.20
2024-02-29T10:29:18.032Z,15.02
2024-02-29T10:34:12.509Z,13.90
2024-02-29T10:36:39.177Z,12.40
2024-02-29T10:39:05.554Z,14.20
2024-02-29T10:41:33.442Z,14.43
2024-02-29T10:44:02.440Z,10.65
2024-02-29T10:46:29.027Z,13.23
2024-02-29T10:48:59.149Z,15.45
2024-02-29T10:51:29.385Z,10.10
2024-02-29T10:54:01.249Z,14.53
2024-02-29T10:56:32.174Z,15.57
2024-02-29T11:01:26.081Z,14.20
2024-02-29T11:03:52.418Z,16.88
2024-02-29T11:06:20.541Z,12.00
2024-02-29T11:08:46.953Z,16.15
2024-02-29T11:11:14.345Z,15.52
2024-02-29T11:13:40.802Z,14.35
2024-02-29T11:16:11.632Z,13.40
2024-02-29T11:21:05.961Z,11.15
2024-02-29T11:23:36.587Z,14.93
2024-02-29T11:26:06.669Z,12.20
2024-02-29T11:28:42.669Z,16.00
2024-02-29T11:31:15.511Z,16.50
2024-02-29T11:33:43.105Z,14.05
2024-02-29T11:36:10.956Z,14.93
2024-02-29T11:38:40.447Z,13.50
2024-02-29T11:41:20.126Z,15.40
2024-02-29T11:43:47.063Z,15.90
2024-02-29T11:46:14.953Z,15.50
2024-02-29T11:48:41.555Z,16.13
2024-02-29T11:51:11.244Z,14.13
2024-02-29T11:53:39.690Z,14.00
2024-02-29T11:56:14.513Z,14.02
2024-02-29T11:58:42.747Z,13.65
2024-02-29T12:01:13.426Z,13.75
2024-02-29T12:03:39.978Z,14.20
2024-02-29T12:06:06.791Z,10.57
2024-02-29T12:08:33.369Z,12.00
2024-02-29T12:11:00.327Z,12.57
2024-02-29T12:13:28.281Z,13.70
2024-02-29T12:15:55.971Z,12.77
2024-02-29T12:18:24.654Z,14.10
2024-02-29T12:20:52.421Z,12.80
2024-02-29T12:23:19.709Z,11.90
2024-02-29T12:25:46.364Z,13.77
2024-02-29T12:28:16.119Z,12.85
2024-02-29T12:30:43.115Z,12.50
2024-02-29T12:33:14.182Z,12.98
2024-02-29T12:35:43.063Z,11.70
2024-02-29T12:38:15.567Z,11.88
2024-02-29T12:40:41.993Z,12.80
2024-02-29T12:43:13.765Z,12.38
2024-02-29T12:45:40.186Z,9.75
2024-02-29T12:48:16.043Z,13.20
2024-02-29T12:50:42.546Z,12.20
2024-02-29T12:53:10.000Z,11.35
2024-02-29T12:55:36.950Z,12.02
2024-02-29T12:58:05.402Z,12.07
2024-02-29T13:00:31.880Z,11.73
2024-02-29T13:03:02.494Z,11.48
2024-02-29T13:05:28.848Z,12.55
2024-02-29T13:08:05.414Z,12.10
2024-02-29T13:10:31.769Z,11.23
2024-02-29T13:13:06.467Z,10.50
2024-02-29T13:15:36.683Z,10.20
2024-02-29T13:18:03.282Z,8.50
2024-02-29T13:20:29.689Z,12.45
2024-02-29T13:22:58.958Z,8.80
2024-02-29T13:25:25.456Z,10.43
2024-02-29T13:27:53.099Z,11.65
2024-02-29T13:30:19.492Z,12.27
2024-02-29T13:32:45.917Z,12.80
2024-02-29T13:35:12.265Z,13.40
2024-02-29T13:37:39.217Z,11.20
2024-02-29T13:40:06.054Z,13.13
2024-02-29T13:42:32.488Z,11.85
2024-02-29T13:44:58.811Z,12.43
2024-02-29T13:47:25.218Z,10.20
2024-02-29T13:49:51.639Z,13.48
2024-02-29T13:52:20.139Z,13.13
2024-02-29T13:54:46.854Z,13.13
2024-02-29T13:57:13.795Z,13.45
2024-02-29T13:59:40.208Z,10.05
2024-02-29T14:02:08.883Z,12.73
2024-02-29T14:04:35.284Z,12.80
2024-02-29T14:07:01.941Z,14.35
2024-02-29T14:09:28.331Z,14.98
2024-02-29T14:11:56.671Z,13.10
2024-02-29T14:14:22.988Z,13.38
2024-02-29T14:16:52.482Z,10.27
2024-02-29T14:19:18.789Z,12.52
2024-02-29T14:21:51.142Z,13.38
2024-02-29T14:24:17.518Z,13.07
2024-02-29T14:26:45.822Z,11.90
2024-02-29T14:29:12.220Z,12.73
2024-02-29T14:31:38.727Z,14.10
2024-02-29T14:34:06.383Z,14.38
2024-02-29T14:36:34.170Z,14.27
2024-02-29T14:39:02.008Z,12.48
2024-02-29T14:41:30.849Z,14.60
2024-02-29T14:43:57.493Z,12.05
2024-02-29T14:46:24.001Z,13.38
2024-02-29T14:48:50.601Z,12.38
2024-02-29T14:51:16.878Z,12.45
2024-02-29T14:53:50.566Z,13.32
2024-02-29T14:56:17.635Z,10.30
2024-02-29T14:58:45.182Z,11.98
2024-02-29T15:01:12.063Z,12.27
2024-02-29T15:03:43.554Z,11.82
2024-02-29T15:06:09.954Z,10.93
2024-02-29T15:08:38.773Z,12.88
2024-02-29T15:11:05.360Z,9.60
2024-02-29T15:13:32.000Z,10.65
2024-02-29T15:15:58.418Z,8.30
2024-02-29T15:18:24.922Z,12.23
2024-02-29T15:20:51.247Z,11.63
2024-02-29T15:23:18.739Z,12.95
2024-02-29T15:25:48.129Z,12.32
2024-02-29T15:28:25.334Z,10.05
2024-02-29T15:30:51.976Z,11.23
2024-02-29T15:33:21.466Z,10.32
2024-02-29T15:35:48.157Z,12.93
2024-02-29T15:38:22.497Z,13.88
2024-02-29T15:40:48.791Z,14.07
2024-02-29T15:43:19.273Z,13.25
2024-02-29T15:45:45.722Z,14.07
2024-02-29T15:48:12.633Z,13.35
2024-02-29T15:50:38.984Z,11.52
2024-02-29T15:53:07.500Z,12.77
2024-02-29T15:55:33.872Z,13.82
2024-02-29T15:58:08.557Z,13.23
2024-02-29T16:00:35.051Z,14.52
2024-02-29T16:03:01.568Z,13.35
2024-02-29T16:05:27.979Z,15.20
2024-02-29T16:07:55.999Z,14.40
2024-02-29T16:10:22.451Z,11.57
2024-02-29T16:12:49.971Z,12.65
2024-02-29T16:15:16.496Z,14.48
2024-02-29T16:17:42.960Z,12.43
2024-02-29T16:20:09.676Z,11.07
2024-02-29T16:22:36.082Z,13.48
2024-02-29T16:25:02.628Z,10.80
2024-02-29T16:27:30.058Z,13.18
2024-02-29T16:29:56.321Z,13.50
2024-02-29T16:32:22.702Z,9.85
2024-02-29T16:34:49.015Z,13.90
2024-02-29T16:37:21.554Z,14.43
2024-02-29T16:39:47.927Z,12.25
2024-02-29T16:42:16.583Z,11.63
2024-02-29T16:44:44.685Z,11.13
2024-02-29T16:47:11.880Z,13.40
2024-02-29T16:49:40.469Z,12.10
2024-02-29T16:52:10.100Z,10.48
2024-02-29T16:54:37.296Z,9.82
2024-02-29T16:57:04.880Z,10.73
2024-02-29T16:59:31.183Z,12.05
2024-02-29T17:01:59.768Z,9.20
2024-02-29T17:04:26.206Z,10.00
2024-02-29T17:07:00.601Z,9.80
2024-02-29T17:09:26.966Z,9.57
2024-02-29T17:11:53.377Z,9.13
2024-02-29T17:14:20.077Z,8.10
2024-02-29T17:16:48.178Z,9.90
2024-02-29T17:19:14.601Z,9.70
2024-02-29T17:21:42.923Z,6.53
2024-02-29T17:24:09.476Z,9.13
2024-02-29T17:26:36.907Z,8.88
2024-02-29T17:29:03.233Z,10.70
2024-02-29T17:31:29.664Z,8.65
2024-02-29T17:33:56.067Z,8.43
2024-02-29T17:36:23.476Z,10.05
2024-02-29T17:38:49.750Z,7.95
2024-02-29T17:41:17.415Z,9.48
2024-02-29T17:43:43.751Z,9.02
2024-02-29T17:46:17.004Z,10.20
2024-02-29T17:48:43.764Z,10.43
2024-02-29T17:51:10.530Z,11.00
2024-02-29T17:53:36.976Z,10.20
2024-02-29T17:56:05.398Z,10.90
2024-02-29T17:58:32.139Z,8.93
2024-02-29T18:00:59.284Z,9.65
2024-02-29T18:03:25.616Z,7.85
2024-02-29T18:05:57.961Z,10.45
2024-02-29T18:08:24.283Z,10.88
2024-02-29T18:10:57.804Z,12.35
2024-02-29T18:13:24.220Z,10.38
2024-02-29T18:15:51.707Z,10.35
2024-02-29T18:18:20.312Z,10.80
2024-02-29T18:20:47.852Z,12.23
2024-02-29T18:23:15.929Z,12.45
2024-02-29T18:25:42.574Z,9.15
2024-02-29T18:28:09.025Z,12.35
2024-02-29T18:30:35.379Z,11.63
2024-02-29T18:33:01.715Z,11.40
2024-02-29T18:35:28.098Z,12.32
2024-02-29T18:37:54.433Z,12.48
2024-02-29T18:40:20.828Z,11.75
2024-02-29T18:42:49.967Z,13.10
2024-02-29T18:45:16.733Z,11.13
2024-02-29T18:47:44.168Z,12.48
2024-02-29T18:50:10.864Z,9.90
2024-02-29T18:52:40.072Z,13.23
2024-02-29T18:55:08.933Z,11.70
2024-02-29T18:57:36.867Z,11.85
2024-02-29T19:00:04.838Z,14.35
2024-02-29T19:02:31.334Z,13.25
2024-02-29T19:04:57.689Z,12.77
2024-02-29T19:07:27.817Z,13.30
2024-02-29T19:09:54.505Z,9.85
2024-02-29T19:12:23.564Z,13.40
2024-02-29T19:14:49.856Z,13.48
2024-02-29T19:17:17.167Z,13.15
2024-02-29T19:19:43.494Z,12.60
2024-02-29T19:22:10.872Z,12.73
2024-02-29T19:24:37.187Z,13.40
2024-02-29T19:27:03.643Z,12.50
2024-02-29T19:29:32.849Z,10.15
2024-02-29T19:32:02.317Z,11.93
2024-02-29T19:34:28.676Z,12.43
2024-02-29T19:36:55.968Z,12.95
2024-02-29T19:39:22.300Z,12.38
2024-02-29T19:41:48.698Z,10.75
2024-02-29T19:44:14.974Z,13.48
2024-02-29T19:46:45.226Z,12.05
2024-02-29T19:49:11.748Z,12.45
2024-02-29T19:51:43.722Z,11.57
2024-02-29T19:54:13.010Z,10.85
2024-02-29T19:56:40.218Z,12.68
2024-02-29T19:59:06.599Z,9.65
2024-02-29T20:01:34.208Z,12.48
2024-02-29T20:04:00.631Z,13.00
2024-02-29T20:06:28.153Z,13.50
2024-02-29T20:08:54.501Z,13.05
2024-02-29T20:11:21.885Z,13.80
2024-02-29T20:13:48.675Z,11.18
2024-02-29T20:16:15.115Z,12.15
2024-02-29T20:18:41.506Z,12.10
2024-02-29T20:21:08.892Z,14.15
2024-02-29T20:23:35.666Z,14.13
2024-02-29T20:26:02.172Z,14.45
2024-02-29T20:28:28.763Z,13.50
2024-02-29T20:30:55.489Z,16.35
2024-02-29T20:33:21.907Z,13.77
2024-02-29T20:35:49.443Z,15.20
2024-02-29T20:38:15.724Z,11.52
2024-02-29T20:40:42.059Z,14.30
2024-02-29T20:43:08.485Z,13.45
2024-02-29T20:45:34.842Z,12.18
2024-02-29T20:48:03.164Z,14.68
2024-02-29T20:50:30.286Z,14.30
2024-02-29T20:52:57.717Z,10.30
2024-02-29T20:55:24.074Z,13.65
2024-02-29T20:57:51.592Z,12.63
2024-02-29T21:00:18.159Z,12.30
2024-02-29T21:02:47.204Z,12.00
2024-02-29T21:05:13.532Z,10.05
2024-02-29T21:07:43.300Z,11.00
2024-02-29T21:10:11.066Z,12.88
2024-02-29T21:12:38.613Z,12.27
2024-02-29T21:15:05.297Z,10.77
2024-02-29T21:17:31.788Z,10.00
2024-02-29T21:19:59.329Z,11.77
2024-02-29T21:22:27.347Z,12.38
2024-02-29T21:24:53.796Z,12.48
2024-02-29T21:27:21.116Z,12.52
2024-02-29T21:29:47.655Z,14.07
2024-02-29T21:32:19.846Z,11.88
2024-02-29T21:34:46.122Z,16.65
2024-02-29T21:37:12.527Z,11.88
2024-02-29T21:39:44.510Z,13.88
2024-02-29T21:42:13.892Z,13.02
2024-02-29T21:44:40.560Z,13.13
2024-02-29T21:47:08.768Z,13.15
2024-02-29T21:49:35.188Z,12.25
2024-02-29T21:52:01.636Z,11.15
2024-02-29T21:54:31.035Z,13.95
2024-02-29T21:56:57.597Z,13.75
2024-02-29T21:59:23.932Z,14.63
2024-02-29T22:01:52.707Z,13.70
2024-02-29T22:04:19.193Z,12.20
2024-02-29T22:06:47.978Z,13.10
2024-02-29T22:09:14.596Z,12.95
2024-02-29T22:11:41.036Z,14.40
2024-02-29T22:14:07.370Z,10.65
2024-02-29T22:16:34.069Z,11.25
2024-02-29T22:19:00.671Z,12.93
2024-02-29T22:21:30.283Z,12.50
2024-02-29T22:23:58.468Z,12.35
2024-02-29T22:26:33.895Z,12.85
2024-02-29T22:29:00.145Z,13.00
2024-02-29T22:34:54.654Z,10.52
2024-02-29T22:37:46.942Z,9.38
2024-02-29T22:40:13.678Z,9.15
2024-02-29T22:42:52.996Z,12.63
2024-02-29T22:45:19.407Z,10.93
2024-02-29T22:47:53.028Z,9.82
2024-02-29T22:50:19.446Z,8.60
2024-02-29T22:52:45.944Z,10.77
2024-02-29T22:55:12.500Z,10.85
2024-02-29T22:57:38.909Z,11.00
2024-02-29T23:00:11.372Z,9.52
2024-02-29T23:02:40.876Z,8.10
2024-02-29T23:05:07.284Z,9.48
2024-02-29T23:07:36.429Z,9.25
2024-02-29T23:10:03.167Z,9.90
2024-02-29T23:12:29.573Z,9.40
2024-02-29T23:14:55.860Z,9.73
2024-02-29T23:17:23.318Z,8.02
2024-02-29T23:19:50.621Z,9.50
2024-02-29T23:22:25.121Z,6.65
2024-02-29T23:24:51.528Z,8.02
2024-02-29T23:27:19.029Z,8.80
2024-02-29T23:29:45.352Z,7.53
2024-02-29T23:32:11.784Z,6.47
2024-02-29T23:34:38.165Z,7.78
2024-02-29T23:37:04.814Z,6.30
2024-02-29T23:39:31.165Z,7.55
2024-02-29T23:41:57.614Z,8.05
2024-02-29T23:44:23.969Z,7.05
2024-02-29T23:46:52.342Z,6.68
2024-02-29T23:49:18.955Z,7.97
2024-02-29T23:51:46.496Z,7.10
2024-02-29T23:54:12.810Z,8.57
2024-02-29T23:56:39.232Z,7.80
2024-02-29T23:59:05.580Z,8.02
